createdAt,value
2023-04-01T00:00:06.646Z,1427.00
2023-04-01T00:01:06.604Z,1408.00
2023-04-01T00:02:06.658Z,1416.00
2023-04-01T00:03:06.671Z,1416.00
2023-04-01T00:04:06.596Z,1413.00
2023-04-01T00:05:22.066Z,1409.00
2023-04-01T00:06:06.465Z,1412.00
2023-04-01T00:07:06.439Z,1415.00
2023-04-01T00:08:06.421Z,1417.00
2023-04-01T00:09:06.383Z,1418.00
2023-04-01T00:10:06.353Z,1411.00
2023-04-01T00:11:06.339Z,1410.00
2023-04-01T00:12:06.320Z,1396.00
2023-04-01T00:13:06.270Z,1410.00
2023-04-01T00:14:06.252Z,1397.00
2023-04-01T00:15:06.204Z,1380.00
2023-04-01T00:17:06.214Z,1384.00
2023-04-01T00:18:06.213Z,1394.00
2023-04-01T00:19:06.081Z,1394.00
2023-04-01T00:20:06.067Z,1388.00
2023-04-01T00:21:06.016Z,1393.00
2023-04-01T00:22:05.981Z,1389.00
2023-04-01T00:23:05.942Z,1390.00
2023-04-01T00:24:05.921Z,1383.00
2023-04-01T00:25:05.938Z,1383.00
2023-04-01T00:26:05.848Z,1388.00
2023-04-01T00:27:05.837Z,1380.00
2023-04-01T00:28:05.802Z,1363.00
2023-04-01T00:29:05.797Z,1372.00
2023-04-01T00:30:05.738Z,1379.00
2023-04-01T00:31:05.759Z,1374.00
2023-04-01T00:32:05.765Z,1374.00
2023-04-01T00:33:05.694Z,1368.00
2023-04-01T00:34:05.658Z,1367.00
2023-04-01T00:35:05.603Z,1356.00
2023-04-01T00:36:05.610Z,1365.00
2023-04-01T00:37:05.540Z,1333.00
2023-04-01T00:38:05.554Z,1362.00
2023-04-01T00:39:05.591Z,1354.00
2023-04-01T00:40:05.625Z,1355.00
2023-04-01T00:41:05.652Z,1365.00
2023-04-01T00:42:05.705Z,1346.00
2023-04-01T00:43:05.710Z,1356.00
2023-04-01T00:44:05.754Z,1344.00
2023-04-01T00:45:05.799Z,1349.00
2023-04-01T00:46:05.813Z,1345.00
2023-04-01T00:47:05.891Z,1346.00
2023-04-01T00:48:05.980Z,1348.00
2023-04-01T00:49:05.916Z,1344.00
2023-04-01T00:50:05.958Z,1342.00
2023-04-01T00:51:05.978Z,1332.00
2023-04-01T00:52:06.026Z,1334.00
2023-04-01T00:53:05.995Z,1335.00
2023-04-01T00:54:05.981Z,1336.00
2023-04-01T00:55:05.940Z,1339.00
2023-04-01T00:56:05.925Z,1340.00
2023-04-01T00:57:05.951Z,1338.00
2023-04-01T00:58:05.842Z,1334.00
2023-04-01T00:59:05.837Z,1340.00
2023-04-01T01:00:05.814Z,1337.00
2023-04-01T01:01:05.816Z,1332.00
2023-04-01T01:02:05.772Z,1319.00
2023-04-01T01:03:05.811Z,1306.00
2023-04-01T01:04:05.788Z,1326.00
2023-04-01T01:05:05.811Z,1329.00
2023-04-01T01:06:05.838Z,1325.00
2023-04-01T01:07:05.883Z,1317.00
2023-04-01T01:08:05.909Z,1317.00
2023-04-01T01:09:05.928Z,1324.00
2023-04-01T01:10:05.968Z,1313.00
2023-04-01T01:11:06.006Z,1316.00
2023-04-01T01:12:06.030Z,1314.00
2023-04-01T01:13:06.050Z,1308.00
2023-04-01T01:14:06.089Z,1308.00
2023-04-01T01:15:06.129Z,1313.00
2023-04-01T01:16:06.165Z,1313.00
2023-04-01T01:17:06.175Z,1308.00
2023-04-01T01:18:06.266Z,1303.00
2023-04-01T01:19:06.240Z,1298.00
2023-04-01T01:20:15.516Z,1294.00
2023-04-01T01:21:06.268Z,1295.00
2023-04-01T01:22:06.247Z,1297.00
2023-04-01T01:23:06.200Z,1299.00
2023-04-01T01:24:06.187Z,1296.00
2023-04-01T01:25:06.161Z,1296.00
2023-04-01T01:26:06.124Z,1297.00
2023-04-01T01:27:06.091Z,1296.00
2023-04-01T01:28:06.080Z,1300.00
2023-04-01T01:29:06.022Z,1300.00
2023-04-01T01:30:06.007Z,1289.00
2023-04-01T01:31:05.988Z,1294.00
2023-04-01T01:32:05.936Z,1286.00
2023-04-01T01:33:05.994Z,1288.00
2023-04-01T01:34:05.950Z,1283.00
2023-04-01T01:35:05.986Z,1286.00
2023-04-01T01:36:06.032Z,1286.00
2023-04-01T01:37:06.034Z,1280.00
2023-04-01T01:38:06.057Z,1288.00
2023-04-01T01:39:06.088Z,1275.00
2023-04-01T01:40:06.130Z,1282.00
2023-04-01T01:41:06.158Z,1279.00
2023-04-01T01:42:06.191Z,1273.00
2023-04-01T01:43:06.246Z,1280.00
2023-04-01T01:44:06.268Z,1267.00
2023-04-01T01:45:06.325Z,1248.00
2023-04-01T01:46:06.397Z,1261.00
2023-04-01T01:47:06.375Z,1265.00
2023-04-01T01:48:06.494Z,1263.00
2023-04-01T01:49:06.429Z,1263.00
2023-04-01T01:50:06.471Z,1264.00
2023-04-01T01:51:06.494Z,1266.00
2023-04-01T01:52:06.541Z,1263.00
2023-04-01T01:53:06.523Z,1264.00
2023-04-01T01:54:06.475Z,1264.00
2023-04-01T01:55:06.459Z,1265.00
2023-04-01T01:56:06.433Z,1264.00
2023-04-01T01:57:06.461Z,1265.00
2023-04-01T01:58:06.376Z,1252.00
2023-04-01T01:59:06.338Z,1255.00
2023-04-01T02:00:06.303Z,1250.00
2023-04-01T02:01:06.316Z,1258.00
2023-04-01T02:02:06.232Z,1252.00
2023-04-01T02:03:06.254Z,1258.00
2023-04-01T02:04:06.324Z,1252.00
2023-04-01T02:05:06.287Z,1250.00
2023-04-01T02:06:06.310Z,1244.00
2023-04-01T02:07:06.366Z,1241.00
2023-04-01T02:08:06.403Z,1248.00
2023-04-01T02:09:06.444Z,1239.00
2023-04-01T02:10:06.447Z,1233.00
2023-04-01T02:11:06.500Z,1247.00
2023-04-01T02:12:06.528Z,1228.00
2023-04-01T02:13:06.571Z,1235.00
2023-04-01T02:14:06.574Z,1224.00
2023-04-01T02:15:06.646Z,1231.00
2023-04-01T02:16:06.670Z,1232.00
2023-04-01T02:17:06.709Z,1227.00
2023-04-01T02:18:06.778Z,1233.00
2023-04-01T02:19:06.733Z,1229.00
2023-04-01T02:20:06.779Z,1222.00
2023-04-01T02:21:06.787Z,1218.00
2023-04-01T02:22:06.812Z,1217.00
2023-04-01T02:23:06.793Z,1218.00
2023-04-01T02:24:06.763Z,1220.00
2023-04-01T02:25:06.720Z,1224.00
2023-04-01T02:26:06.684Z,1227.00
2023-04-01T02:27:06.662Z,1224.00
2023-04-01T02:28:06.635Z,1225.00
2023-04-01T02:29:06.611Z,1212.00
2023-04-01T02:30:06.638Z,1218.00
2023-04-01T02:31:06.552Z,1217.00
2023-04-01T02:32:06.540Z,1218.00
2023-04-01T02:33:06.714Z,1207.00
2023-04-01T02:34:06.619Z,1224.00
2023-04-01T02:35:06.665Z,1219.00
2023-04-01T02:36:06.738Z,1205.00
2023-04-01T02:37:06.741Z,1209.00
2023-04-01T02:38:06.776Z,1208.00
2023-04-01T02:39:06.817Z,1211.00
2023-04-01T02:40:06.849Z,1203.00
2023-04-01T02:41:06.889Z,1205.00
2023-04-01T02:42:06.930Z,1202.00
2023-04-01T02:43:06.972Z,1202.00
2023-04-01T02:44:07.030Z,1196.00
2023-04-01T02:45:07.044Z,1192.00
2023-04-01T02:46:07.104Z,1193.00
2023-04-01T02:47:07.233Z,1196.00
2023-04-01T02:48:07.204Z,1193.00
2023-04-01T02:49:07.211Z,1196.00
2023-04-01T02:50:07.266Z,1183.00
2023-04-01T02:51:07.287Z,1190.00
2023-04-01T02:52:07.337Z,1188.00
2023-04-01T02:53:07.371Z,1189.00
2023-04-01T02:54:07.412Z,1182.00
2023-04-01T02:55:07.455Z,1198.00
2023-04-01T02:56:07.502Z,1174.00
2023-04-01T02:57:07.600Z,1174.00
2023-04-01T02:58:07.565Z,1183.00
2023-04-01T02:59:07.593Z,1180.00
2023-04-01T03:00:07.645Z,1183.00
2023-04-01T03:01:07.733Z,1182.00
2023-04-01T03:02:07.840Z,1172.00
2023-04-01T03:03:08.005Z,1178.00
2023-04-01T03:04:07.808Z,1172.00
2023-04-01T03:05:07.836Z,1177.00
2023-04-01T03:06:07.894Z,1168.00
2023-04-01T03:07:07.929Z,1170.00
2023-04-01T03:08:07.948Z,1157.00
2023-04-01T03:09:07.992Z,1169.00
2023-04-01T03:10:08.038Z,1167.00
2023-04-01T03:11:08.079Z,1168.00
2023-04-01T03:12:08.173Z,1160.00
2023-04-01T03:13:08.073Z,1161.00
2023-04-01T03:14:08.044Z,1162.00
2023-04-01T03:15:10.890Z,1162.00
2023-04-01T03:16:08.034Z,1169.00
2023-04-01T03:17:07.963Z,1182.00
2023-04-01T03:18:08.003Z,1167.00
2023-04-01T03:19:07.918Z,1162.00
2023-04-01T03:20:07.962Z,1163.00
2023-04-01T03:21:07.875Z,1164.00
2023-04-01T03:22:07.828Z,1165.00
2023-04-01T03:23:07.807Z,1167.00
2023-04-01T03:24:07.755Z,1154.00
2023-04-01T03:25:07.735Z,1160.00
2023-04-01T03:26:07.711Z,1156.00
2023-04-01T03:27:07.665Z,1156.00
2023-04-01T03:28:07.669Z,1144.00
2023-04-01T03:29:07.690Z,1150.00
2023-04-01T03:30:07.829Z,1151.00
2023-04-01T03:31:07.820Z,1145.00
2023-04-01T03:32:07.818Z,1144.00
2023-04-01T03:33:07.929Z,1148.00
2023-04-01T03:34:07.916Z,1151.00
2023-04-01T03:35:07.925Z,1144.00
2023-04-01T03:36:07.999Z,1146.00
2023-04-01T03:37:07.992Z,1143.00
2023-04-01T03:38:08.036Z,1132.00
2023-04-01T03:39:08.009Z,1133.00
2023-04-01T03:40:07.981Z,1135.00
2023-04-01T03:41:07.964Z,1136.00
2023-04-01T03:42:07.924Z,1136.00
2023-04-01T03:43:07.935Z,1140.00
2023-04-01T03:44:07.857Z,1140.00
2023-04-01T03:45:07.836Z,1138.00
2023-04-01T03:46:07.873Z,1142.00
2023-04-01T03:47:07.794Z,1124.00
2023-04-01T03:48:07.816Z,1132.00
2023-04-01T03:49:07.832Z,1123.00
2023-04-01T03:50:07.862Z,1130.00
2023-04-01T03:51:07.917Z,1132.00
2023-04-01T03:52:07.955Z,1125.00
2023-04-01T03:53:07.975Z,1126.00
2023-04-01T03:54:08.010Z,1122.00
2023-04-01T03:55:08.055Z,1128.00
2023-04-01T03:56:08.105Z,1121.00
2023-04-01T03:57:08.193Z,1120.00
2023-04-01T03:58:08.184Z,1124.00
2023-04-01T03:59:08.233Z,1112.00
2023-04-01T04:00:08.257Z,1115.00
2023-04-01T04:01:08.289Z,1122.00
2023-04-01T04:02:08.331Z,1117.00
2023-04-01T04:03:08.473Z,1117.00
2023-04-01T04:04:08.410Z,1121.00
2023-04-01T04:05:08.460Z,1113.00
2023-04-01T04:06:08.471Z,1125.00
2023-04-01T04:07:08.510Z,1113.00
2023-04-01T04:08:08.546Z,1105.00
2023-04-01T04:09:08.601Z,1106.00
2023-04-01T04:10:08.625Z,1107.00
2023-04-01T04:11:08.665Z,1101.00
2023-04-01T04:12:08.712Z,1111.00
2023-04-01T04:13:08.743Z,1116.00
2023-04-01T04:14:08.790Z,1103.00
2023-04-01T04:15:08.838Z,1103.00
2023-04-01T04:16:08.943Z,1102.00
2023-04-01T04:17:08.913Z,1106.00
2023-04-01T04:18:08.958Z,1098.00
2023-04-01T04:19:09.010Z,1105.00
2023-04-01T04:20:09.050Z,1095.00
2023-04-01T04:21:09.063Z,1088.00
2023-04-01T04:22:09.104Z,1100.00
2023-04-01T04:23:09.154Z,1097.00
2023-04-01T04:24:09.186Z,1093.00
2023-04-01T04:25:09.240Z,1094.00
2023-04-01T04:26:09.290Z,1091.00
2023-04-01T04:27:09.328Z,1092.00
2023-04-01T04:28:09.324Z,1093.00
2023-04-01T04:29:09.346Z,1090.00
2023-04-01T04:30:09.370Z,1085.00
2023-04-01T04:31:09.444Z,1083.00
2023-04-01T04:32:09.453Z,1089.00
2023-04-01T04:33:09.540Z,1084.00
2023-04-01T04:34:09.512Z,1084.00
2023-04-01T04:35:09.543Z,1088.00
2023-04-01T04:36:09.621Z,1083.00
2023-04-01T04:37:09.644Z,1088.00
2023-04-01T04:38:09.685Z,1090.00
2023-04-01T04:39:09.700Z,1074.00
2023-04-01T04:40:09.756Z,1078.00
2023-04-01T04:41:09.783Z,1077.00
2023-04-01T04:42:09.823Z,1088.00
2023-04-01T04:43:09.858Z,1079.00
2023-04-01T04:44:09.896Z,1079.00
2023-04-01T04:45:09.950Z,1051.00
2023-04-01T04:46:09.975Z,1080.00
2023-04-01T04:47:10.104Z,1081.00
2023-04-01T04:48:10.135Z,1077.00
2023-04-01T04:49:10.076Z,1058.00
2023-04-01T04:50:10.143Z,1064.00
2023-04-01T04:51:10.152Z,1071.00
2023-04-01T04:52:10.192Z,1076.00
2023-04-01T04:53:10.234Z,1066.00
2023-04-01T04:54:10.262Z,1078.00
2023-04-01T04:55:10.320Z,1065.00
2023-04-01T04:56:10.339Z,1057.00
2023-04-01T04:57:10.504Z,1062.00
2023-04-01T04:58:10.425Z,1059.00
2023-04-01T04:59:10.471Z,1061.00
2023-04-01T05:00:10.529Z,1064.00
2023-04-01T05:01:10.642Z,1058.00
2023-04-01T05:02:10.640Z,1057.00
2023-04-01T05:03:10.741Z,1057.00
2023-04-01T05:04:10.678Z,1049.00
2023-04-01T05:05:10.717Z,1056.00
2023-04-01T05:06:10.750Z,1058.00
2023-04-01T05:07:10.800Z,1053.00
2023-04-01T05:08:10.834Z,1054.00
2023-04-01T05:09:10.881Z,1057.00
2023-04-01T05:10:10.916Z,1053.00
2023-04-01T05:11:13.633Z,1052.00
2023-04-01T05:12:10.924Z,1058.00
2023-04-01T05:13:10.887Z,1049.00
2023-04-01T05:14:10.842Z,1051.00
2023-04-01T05:15:10.813Z,1051.00
2023-04-01T05:16:10.946Z,1051.00
2023-04-01T05:17:10.805Z,1051.00
2023-04-01T05:18:10.728Z,1054.00
2023-04-01T05:19:10.704Z,1054.00
2023-04-01T05:20:10.679Z,1059.00
2023-04-01T05:21:10.651Z,1046.00
2023-04-01T05:22:10.649Z,1040.00
2023-04-01T05:23:10.618Z,1039.00
2023-04-01T05:24:10.696Z,1036.00
2023-04-01T05:25:10.708Z,1040.00
2023-04-01T05:26:10.747Z,1037.00
2023-04-01T05:27:10.817Z,1035.00
2023-04-01T05:28:10.832Z,1039.00
2023-04-01T05:29:10.861Z,1026.00
2023-04-01T05:30:10.907Z,1036.00
2023-04-01T05:31:11.074Z,1029.00
2023-04-01T05:32:10.996Z,1036.00
2023-04-01T05:33:11.035Z,1024.00
2023-04-01T05:34:11.073Z,1023.00
2023-04-01T05:35:11.106Z,1027.00
2023-04-01T05:36:11.228Z,1025.00
2023-04-01T05:37:11.196Z,1010.00
2023-04-01T05:38:11.240Z,1026.00
2023-04-01T05:39:11.251Z,1024.00
2023-04-01T05:40:11.281Z,1013.00
2023-04-01T05:41:11.331Z,1023.00
2023-04-01T05:42:11.367Z,1017.00
2023-04-01T05:43:11.441Z,1015.00
2023-04-01T05:44:11.449Z,1015.00
2023-04-01T05:45:11.490Z,994.00
2023-04-01T05:46:11.586Z,1008.00
2023-04-01T05:47:11.597Z,1019.00
2023-04-01T05:48:11.651Z,1019.00
2023-04-01T05:49:11.649Z,1017.00
2023-04-01T05:50:11.701Z,1015.00
2023-04-01T05:51:11.729Z,1006.00
2023-04-01T05:52:11.786Z,1014.00
2023-04-01T05:53:11.817Z,1003.00
2023-04-01T05:54:11.891Z,1014.00
2023-04-01T05:55:11.883Z,1000.00
2023-04-01T05:56:11.932Z,1003.00
2023-04-01T05:57:12.009Z,1002.00
2023-04-01T05:58:12.036Z,1003.00
2023-04-01T05:59:12.051Z,1004.00
2023-04-01T06:00:12.100Z,1003.00
2023-04-01T06:01:15.805Z,999.00
2023-04-01T06:02:12.097Z,999.00
2023-04-01T06:03:12.111Z,999.00
2023-04-01T06:04:12.167Z,1000.00
2023-04-01T06:05:12.063Z,996.00
2023-04-01T06:06:12.018Z,1010.00
2023-04-01T06:07:11.982Z,997.00
2023-04-01T06:08:11.975Z,997.00
2023-04-01T06:09:11.947Z,981.00
2023-04-01T06:10:11.939Z,1001.00
2023-04-01T06:11:11.920Z,991.00
2023-04-01T06:12:11.916Z,992.00
2023-04-01T06:13:11.909Z,981.00
2023-04-01T06:14:11.911Z,994.00
2023-04-01T06:15:11.866Z,990.00
2023-04-01T06:16:11.904Z,983.00
2023-04-01T06:17:11.825Z,991.00
2023-04-01T06:18:11.845Z,980.00
2023-04-01T06:19:11.791Z,987.00
2023-04-01T06:20:11.770Z,985.00
2023-04-01T06:21:11.740Z,986.00
2023-04-01T06:22:11.713Z,986.00
2023-04-01T06:23:11.733Z,983.00
2023-04-01T06:24:11.691Z,984.00
2023-04-01T06:25:11.686Z,982.00
2023-04-01T06:26:11.646Z,985.00
2023-04-01T06:27:11.620Z,973.00
2023-04-01T06:28:11.618Z,980.00
2023-04-01T06:29:11.586Z,975.00
2023-04-01T06:30:11.583Z,981.00
2023-04-01T06:31:11.631Z,973.00
2023-04-01T06:32:11.604Z,978.00
2023-04-01T06:33:11.636Z,976.00
2023-04-01T06:34:11.623Z,966.00
2023-04-01T06:35:11.602Z,967.00
2023-04-01T06:36:11.611Z,968.00
2023-04-01T06:37:11.556Z,967.00
2023-04-01T06:38:11.548Z,974.00
2023-04-01T06:39:11.524Z,975.00
2023-04-01T06:40:11.494Z,975.00
2023-04-01T06:41:11.464Z,968.00
2023-04-01T06:42:11.454Z,972.00
2023-04-01T06:43:11.454Z,950.00
2023-04-01T06:44:11.421Z,944.00
2023-04-01T06:45:11.389Z,966.00
2023-04-01T06:46:11.399Z,967.00
2023-04-01T06:47:11.347Z,967.00
2023-04-01T06:48:11.375Z,965.00
2023-04-01T06:49:11.313Z,965.00
2023-04-01T06:50:11.290Z,968.00
2023-04-01T06:51:11.264Z,957.00
2023-04-01T06:52:11.243Z,960.00
2023-04-01T06:53:11.215Z,961.00
2023-04-01T06:54:11.199Z,952.00
2023-04-01T06:55:11.188Z,960.00
2023-04-01T06:56:11.154Z,962.00
2023-04-01T06:57:11.180Z,955.00
2023-04-01T06:58:11.124Z,951.00
2023-04-01T06:59:11.079Z,963.00
2023-04-01T07:00:11.251Z,962.00
2023-04-01T07:01:11.034Z,943.00
2023-04-01T07:02:10.995Z,953.00
2023-04-01T07:03:11.030Z,954.00
2023-04-01T07:04:11.008Z,954.00
2023-04-01T07:05:11.121Z,955.00
2023-04-01T07:06:10.912Z,954.00
2023-04-01T07:07:10.881Z,952.00
2023-04-01T07:08:10.879Z,952.00
2023-04-01T07:09:10.832Z,954.00
2023-04-01T07:10:10.814Z,931.00
2023-04-01T07:11:10.781Z,952.00
2023-04-01T07:12:10.757Z,941.00
2023-04-01T07:13:10.750Z,936.00
2023-04-01T07:14:10.729Z,943.00
2023-04-01T07:15:10.735Z,941.00
2023-04-01T07:16:10.766Z,939.00
2023-04-01T07:17:10.801Z,932.00
2023-04-01T07:18:10.817Z,912.00
2023-04-01T07:19:10.823Z,901.00
2023-04-01T07:20:10.834Z,904.00
2023-04-01T07:21:10.858Z,909.00
2023-04-01T07:22:10.870Z,881.00
2023-04-01T07:23:10.903Z,917.00
2023-04-01T07:24:10.872Z,918.00
2023-04-01T07:25:10.825Z,919.00
2023-04-01T07:26:10.807Z,923.00
2023-04-01T07:27:10.779Z,917.00
2023-04-01T07:28:10.777Z,917.00
2023-04-01T07:29:10.737Z,899.00
2023-04-01T07:30:10.695Z,922.00
2023-04-01T07:31:10.709Z,911.00
2023-04-01T07:32:10.654Z,898.00
2023-04-01T07:33:10.704Z,909.00
2023-04-01T07:34:10.611Z,892.00
2023-04-01T07:35:10.619Z,877.00
2023-04-01T07:36:10.586Z,899.00
2023-04-01T07:37:10.524Z,916.00
2023-04-01T07:38:10.550Z,895.00
2023-04-01T07:39:10.518Z,870.00
2023-04-01T07:40:10.507Z,872.00
2023-04-01T07:41:10.509Z,896.00
2023-04-01T07:42:10.519Z,883.00
2023-04-01T07:43:10.528Z,893.00
2023-04-01T07:44:10.556Z,879.00
2023-04-01T07:45:10.546Z,905.00
2023-04-01T07:46:10.589Z,908.00
2023-04-01T07:47:10.558Z,900.00
2023-04-01T07:48:10.681Z,893.00
2023-04-01T07:49:10.583Z,875.00
2023-04-01T07:50:10.573Z,873.00
2023-04-01T07:51:10.574Z,873.00
2023-04-01T07:52:10.596Z,866.00
2023-04-01T07:53:10.565Z,887.00
2023-04-01T07:54:10.589Z,864.00
2023-04-01T07:55:10.564Z,887.00
2023-04-01T07:56:11.565Z,856.00
2023-04-01T07:57:10.583Z,853.00
2023-04-01T07:58:10.530Z,847.00
2023-04-01T07:59:10.518Z,853.00
2023-04-01T08:00:10.483Z,838.00
2023-04-01T08:01:10.460Z,836.00
2023-04-01T08:02:10.447Z,848.00
2023-04-01T08:03:10.492Z,836.00
2023-04-01T08:04:10.610Z,854.00
2023-04-01T08:05:10.365Z,849.00
2023-04-01T08:06:10.341Z,833.00
2023-04-01T08:07:10.316Z,829.00
2023-04-01T08:08:10.280Z,835.00
2023-04-01T08:09:10.268Z,832.00
2023-04-01T08:10:10.262Z,836.00
2023-04-01T08:11:10.202Z,845.00
2023-04-01T08:12:10.194Z,825.00
2023-04-01T08:13:10.155Z,834.00
2023-04-01T08:14:10.139Z,837.00
2023-04-01T08:15:10.096Z,841.00
2023-04-01T08:16:10.146Z,823.00
2023-04-01T08:17:10.047Z,824.00
2023-04-01T08:18:10.042Z,814.00
2023-04-01T08:19:10.060Z,822.00
2023-04-01T08:20:10.075Z,821.00
2023-04-01T08:21:10.084Z,819.00
2023-04-01T08:22:10.102Z,832.00
2023-04-01T08:23:10.140Z,820.00
2023-04-01T08:24:10.186Z,824.00
2023-04-01T08:25:10.215Z,818.00
2023-04-01T08:26:10.236Z,819.00
2023-04-01T08:27:10.270Z,824.00
2023-04-01T08:28:10.300Z,825.00
2023-04-01T08:29:10.319Z,814.00
2023-04-01T08:30:10.493Z,818.00
2023-04-01T08:31:10.368Z,824.00
2023-04-01T08:32:10.477Z,810.00
2023-04-01T08:33:10.488Z,805.00
2023-04-01T08:34:10.477Z,806.00
2023-04-01T08:35:10.502Z,812.00
2023-04-01T08:36:10.558Z,822.00
2023-04-01T08:37:10.561Z,818.00
2023-04-01T08:38:10.585Z,819.00
2023-04-01T08:39:10.613Z,800.00
2023-04-01T08:40:10.636Z,802.00
2023-04-01T08:41:10.661Z,820.00
2023-04-01T08:42:10.694Z,810.00
2023-04-01T08:43:10.709Z,811.00
2023-04-01T08:44:10.746Z,801.00
2023-04-01T08:45:12.501Z,814.00
2023-04-01T08:46:10.778Z,801.00
2023-04-01T08:47:10.707Z,814.00
2023-04-01T08:48:10.727Z,801.00
2023-04-01T08:49:10.737Z,792.00
2023-04-01T08:50:10.622Z,815.00
2023-04-01T08:51:10.559Z,793.00
2023-04-01T08:52:10.526Z,812.00
2023-04-01T08:53:10.528Z,798.00
2023-04-01T08:54:10.482Z,803.00
2023-04-01T08:55:10.449Z,805.00
2023-04-01T08:56:10.414Z,804.00
2023-04-01T08:57:10.432Z,807.00
2023-04-01T08:58:10.334Z,804.00
2023-04-01T08:59:10.303Z,813.00
2023-04-01T09:00:10.317Z,809.00
2023-04-01T09:01:10.238Z,806.00
2023-04-01T09:02:10.253Z,801.00
2023-04-01T09:03:10.279Z,801.00
2023-04-01T09:04:10.178Z,793.00
2023-04-01T09:05:10.112Z,800.00
2023-04-01T09:06:10.137Z,795.00
2023-04-01T09:07:12.209Z,789.00
2023-04-01T09:08:10.328Z,805.00
2023-04-01T09:09:10.353Z,791.00
2023-04-01T09:10:10.380Z,792.00
2023-04-01T09:11:10.380Z,792.00
2023-04-01T09:12:10.459Z,785.00
2023-04-01T09:13:10.419Z,781.00
2023-04-01T09:14:10.430Z,799.00
2023-04-01T09:15:10.446Z,785.00
2023-04-01T09:16:10.483Z,796.00
2023-04-01T09:17:10.485Z,784.00
2023-04-01T09:18:10.541Z,790.00
2023-04-01T09:19:11.131Z,797.00
2023-04-01T09:20:10.514Z,789.00
2023-04-01T09:21:10.518Z,784.00
2023-04-01T09:22:10.537Z,776.00
2023-04-01T09:23:10.555Z,775.00
2023-04-01T09:24:10.573Z,777.00
2023-04-01T09:25:10.576Z,775.00
2023-04-01T09:26:10.586Z,764.00
2023-04-01T09:27:10.581Z,768.00
2023-04-01T09:28:10.594Z,773.00
2023-04-01T09:29:10.597Z,778.00
2023-04-01T09:30:10.603Z,801.00
2023-04-01T09:31:10.613Z,785.00
2023-04-01T09:32:10.596Z,760.00
2023-04-01T09:33:10.618Z,775.00
2023-04-01T09:34:10.638Z,790.00
2023-04-01T09:35:10.639Z,766.00
2023-04-01T09:36:10.636Z,764.00
2023-04-01T09:37:10.620Z,765.00
2023-04-01T09:38:10.634Z,770.00
2023-04-01T09:39:10.635Z,780.00
2023-04-01T09:40:10.648Z,779.00
2023-04-01T09:41:10.653Z,769.00
2023-04-01T09:42:10.659Z,765.00
2023-04-01T09:43:10.664Z,760.00
2023-04-01T09:44:10.674Z,766.00
2023-04-01T09:45:10.668Z,767.00
2023-04-01T09:46:10.705Z,774.00
2023-04-01T09:47:10.685Z,758.00
2023-04-01T09:48:10.758Z,754.00
2023-04-01T09:49:10.692Z,763.00
2023-04-01T09:50:10.708Z,770.00
2023-04-01T09:51:10.708Z,765.00
2023-04-01T09:52:10.711Z,764.00
2023-04-01T09:53:10.717Z,767.00
2023-04-01T09:54:10.726Z,764.00
2023-04-01T09:55:10.738Z,744.00
2023-04-01T09:56:10.716Z,757.00
2023-04-01T09:57:10.750Z,752.00
2023-04-01T09:58:10.701Z,759.00
2023-04-01T09:59:10.689Z,756.00
2023-04-01T10:00:10.700Z,757.00
2023-04-01T10:01:10.679Z,756.00
2023-04-01T10:02:10.750Z,755.00
2023-04-01T10:03:10.706Z,747.00
2023-04-01T10:04:10.670Z,767.00
2023-04-01T10:05:10.685Z,747.00
2023-04-01T10:06:10.749Z,755.00
2023-04-01T10:07:10.625Z,746.00
2023-04-01T10:08:10.612Z,760.00
2023-04-01T10:09:10.581Z,761.00
2023-04-01T10:10:10.543Z,758.00
2023-04-01T10:11:10.493Z,754.00
2023-04-01T10:12:10.461Z,759.00
2023-04-01T10:13:10.437Z,758.00
2023-04-01T10:14:10.401Z,749.00
2023-04-01T10:15:10.361Z,750.00
2023-04-01T10:16:10.336Z,750.00
2023-04-01T10:17:10.277Z,746.00
2023-04-01T10:18:10.256Z,754.00
2023-04-01T10:19:10.197Z,755.00
2023-04-01T10:20:10.175Z,759.00
2023-04-01T10:21:10.121Z,757.00
2023-04-01T10:22:10.078Z,751.00
2023-04-01T10:23:10.029Z,748.00
2023-04-01T10:24:10.016Z,745.00
2023-04-01T10:25:09.974Z,740.00
2023-04-01T10:26:09.914Z,748.00
2023-04-01T10:27:09.873Z,750.00
2023-04-01T10:28:09.847Z,739.00
2023-04-01T10:29:09.791Z,740.00
2023-04-01T10:30:09.756Z,740.00
2023-04-01T10:31:09.731Z,743.00
2023-04-01T10:32:09.913Z,747.00
2023-04-01T10:33:09.666Z,746.00
2023-04-01T10:34:09.592Z,743.00
2023-04-01T10:35:09.561Z,750.00
2023-04-01T10:36:09.591Z,736.00
2023-04-01T10:37:09.466Z,750.00
2023-04-01T10:38:09.431Z,735.00
2023-04-01T10:39:09.379Z,747.00
2023-04-01T10:40:09.365Z,741.00
2023-04-01T10:41:09.296Z,726.00
2023-04-01T10:42:09.271Z,748.00
2023-04-01T10:43:09.220Z,738.00
2023-04-01T10:44:09.188Z,741.00
2023-04-01T10:45:09.133Z,730.00
2023-04-01T10:46:09.139Z,733.00
2023-04-01T10:47:09.044Z,736.00
2023-04-01T10:48:09.127Z,739.00
2023-04-01T10:49:08.968Z,732.00
2023-04-01T10:50:08.937Z,723.00
2023-04-01T10:51:08.889Z,747.00
2023-04-01T10:52:08.840Z,726.00
2023-04-01T10:53:08.797Z,744.00
2023-04-01T10:54:08.760Z,730.00
2023-04-01T10:55:08.721Z,725.00
2023-04-01T10:56:08.706Z,738.00
2023-04-01T10:57:08.765Z,716.00
2023-04-01T10:58:08.734Z,735.00
2023-04-01T10:59:08.790Z,723.00
2023-04-01T11:00:08.753Z,738.00
2023-04-01T11:01:08.866Z,722.00
2023-04-01T11:02:12.061Z,717.00
2023-04-01T11:03:08.882Z,747.00
2023-04-01T11:04:08.727Z,733.00
2023-04-01T11:05:08.676Z,735.00
2023-04-01T11:06:08.648Z,735.00
2023-04-01T11:07:08.576Z,733.00
2023-04-01T11:08:08.533Z,724.00
2023-04-01T11:09:08.489Z,723.00
2023-04-01T11:10:08.441Z,721.00
2023-04-01T11:11:08.425Z,732.00
2023-04-01T11:12:08.362Z,719.00
2023-04-01T11:13:08.301Z,720.00
2023-04-01T11:14:08.264Z,720.00
2023-04-01T11:15:08.225Z,720.00
2023-04-01T11:16:08.246Z,719.00
2023-04-01T11:17:08.128Z,714.00
2023-04-01T11:18:08.091Z,717.00
2023-04-01T11:19:08.031Z,715.00
2023-04-01T11:20:07.967Z,726.00
2023-04-01T11:21:07.936Z,716.00
2023-04-01T11:22:07.871Z,722.00
2023-04-01T11:23:07.887Z,720.00
2023-04-01T11:24:07.935Z,716.00
2023-04-01T11:25:07.934Z,698.00
2023-04-01T11:26:07.963Z,706.00
2023-04-01T11:27:08.000Z,717.00
2023-04-01T11:28:07.985Z,703.00
2023-04-01T11:29:07.999Z,696.00
2023-04-01T11:30:08.007Z,689.00
2023-04-01T11:31:08.039Z,706.00
2023-04-01T11:32:08.047Z,705.00
2023-04-01T11:33:08.145Z,697.00
2023-04-01T11:34:08.111Z,702.00
2023-04-01T11:35:08.093Z,700.00
2023-04-01T11:36:08.144Z,694.00
2023-04-01T11:37:08.143Z,702.00
2023-04-01T11:38:08.165Z,683.00
2023-04-01T11:39:08.182Z,700.00
2023-04-01T11:40:08.200Z,687.00
2023-04-01T11:41:08.234Z,692.00
2023-04-01T11:42:08.243Z,685.00
2023-04-01T11:43:08.260Z,693.00
2023-04-01T11:44:08.285Z,692.00
2023-04-01T11:45:08.317Z,686.00
2023-04-01T11:46:08.379Z,689.00
2023-04-01T11:47:08.344Z,680.00
2023-04-01T11:48:08.397Z,676.00
2023-04-01T11:49:08.391Z,671.00
2023-04-01T11:50:08.417Z,677.00
2023-04-01T11:51:08.436Z,688.00
2023-04-01T11:52:08.450Z,680.00
2023-04-01T11:53:08.484Z,684.00
2023-04-01T11:54:08.416Z,684.00
2023-04-01T11:55:08.388Z,680.00
2023-04-01T11:56:08.351Z,686.00
2023-04-01T11:57:08.332Z,682.00
2023-04-01T11:58:08.250Z,685.00
2023-04-01T11:59:08.221Z,685.00
2023-04-01T12:00:08.148Z,686.00
2023-04-01T12:01:08.129Z,683.00
2023-04-01T12:02:08.105Z,685.00
2023-04-01T12:03:08.077Z,676.00
2023-04-01T12:04:08.170Z,679.00
2023-04-01T12:05:07.940Z,689.00
2023-04-01T12:06:07.896Z,679.00
2023-04-01T12:07:07.906Z,668.00
2023-04-01T12:08:07.945Z,677.00
2023-04-01T12:09:07.890Z,678.00
2023-04-01T12:10:07.860Z,678.00
2023-04-01T12:11:07.821Z,678.00
2023-04-01T12:12:07.760Z,665.00
2023-04-01T12:13:07.718Z,683.00
2023-04-01T12:14:07.670Z,686.00
2023-04-01T12:15:07.619Z,677.00
2023-04-01T12:16:07.636Z,671.00
2023-04-01T12:17:07.549Z,665.00
2023-04-01T12:18:07.618Z,665.00